Stations météo

réclame
Mon MeteoGroup
S. Valentino Alla Muta, Italie (16008): Température de l'air & dewpoint: 11.12.2018 20:00:00 - 17.12.2018 20:00:00 (CET)S. Valentino Alla Muta, Italie (16008): Vitesse du vent: 11.12.2018 20:00:00 - 17.12.2018 20:00:00 (CET)S. Valentino Alla Muta, Italie (16008): Direction du vent: 11.12.2018 20:00:00 - 17.12.2018 20:00:00 (CET)S. Valentino Alla Muta, Italie (16008): visibility: 11.12.2018 20:00:00 - 17.12.2018 20:00:00 (CET)
Date & Time tt [°C] td [°C] ff [km/h] ff [knt] dd vv [km]
17.12.2018 20:00:00 -2,0 -6,2 5 3 N 20
17.12.2018 19:00:00 -1,6 -7,7 5 3 N 20
17.12.2018 18:00:00 -1,6 -6,7 8 4 NNE 30
17.12.2018 17:00:00 -0,8 -7,0 8 4 NNE 30
17.12.2018 16:00:00 -0,2 -7,2 5 3 NNE 30
17.12.2018 15:00:00 1,2 -6,8 9 5 NNE 30
17.12.2018 14:00:00 1,8 -7,0 9 5 N 30
17.12.2018 13:00:00 1,8 -7,8 13 7 N 30
17.12.2018 12:00:00 0,8 -6,7 13 7 NNE 30
17.12.2018 11:00:00 0,2 -8,3 9 5 N 25
17.12.2018 10:00:00 -3,8 -7,1 11 6 NNE 20
17.12.2018 09:00:00 -4,8 -7,2 13 7 N 15
17.12.2018 08:00:00 -4,6 -6,9 11 6 N 12
17.12.2018 07:00:00 -4,8 -6,9 11 6 N 8
17.12.2018 06:00:00 -4,6 -6,1 9 5 N 6
17.12.2018 05:00:00 -4,6 -6,1 9 5 N 6
17.12.2018 04:00:00 -4,6 -6,0 8 4 N 8
17.12.2018 03:00:00 - - - - - -
17.12.2018 02:00:00 - - - - - -
17.12.2018 01:00:00 -7,0 -7,3 4 2 N 10
17.12.2018 00:00:00 - - - - - -
16.12.2018 23:00:00 -6,4 -6,4 0 0 N 10
16.12.2018 22:00:00 -6,8 -8,0 4 2 NNE 10
16.12.2018 21:00:00 -4,4 -5,8 4 2 ESE 10
16.12.2018 20:00:00 -4,8 -5,9 0 0 N 10
16.12.2018 19:00:00 -5,2 -6,6 8 4 NNE 10
16.12.2018 18:00:00 -5,0 -6,8 8 4 NNE 12
16.12.2018 17:00:00 -4,6 -7,4 0 0 N 12
16.12.2018 16:00:00 -3,8 -7,9 0 0 N 12
16.12.2018 15:00:00 -3,4 -7,4 0 0 N 12
16.12.2018 14:00:00 -3,0 -7,0 5 3 SSW 12
16.12.2018 13:00:00 -2,2 -7,3 5 3 SSW 15
16.12.2018 12:00:00 -1,6 -7,7 4 2 SW 20
16.12.2018 11:00:00 -1,8 -5,1 4 2 SW 15
16.12.2018 10:00:00 -4,8 -4,8 4 2 E 3,0
16.12.2018 09:00:00 -5,2 -5,2 5 3 NNE 2,0
16.12.2018 08:00:00 -5,6 -5,6 5 3 N 10
16.12.2018 07:00:00 -6,0 -6,4 0 0 N 6
16.12.2018 06:00:00 -6,0 -9,2 5 3 NNE 10
16.12.2018 05:00:00 -6,6 -10,5 0 0 N 12
16.12.2018 04:00:00 -6,6 -10,6 0 0 N 12
16.12.2018 03:00:00 -6,6 -10,3 9 5 NNE 12
16.12.2018 02:00:00 -7,2 -10,7 9 5 NNE 12
16.12.2018 01:00:00 -8,0 -11,3 9 5 N 10
16.12.2018 00:00:00 -8,0 -11,3 8 4 N 10
15.12.2018 23:00:00 -8,2 -11,5 9 5 N 12
15.12.2018 22:00:00 -8,0 -12,5 9 5 N 12
15.12.2018 21:00:00 -8,0 -12,3 9 5 N 12
15.12.2018 20:00:00 -7,4 -13,0 9 5 N 12
15.12.2018 19:00:00 -6,8 -13,5 9 5 N 12
15.12.2018 18:00:00 -6,6 -13,5 11 6 NNE 12
15.12.2018 17:00:00 -6,0 -13,8 9 5 NNE 16
15.12.2018 16:00:00 -5,2 -14,3 13 7 NNE 20
15.12.2018 15:00:00 -4,2 -14,4 15 8 NNE 20
15.12.2018 14:00:00 -2,8 -15,1 13 7 NNE 20
15.12.2018 13:00:00 -2,2 -15,3 8 4 NNE 20
15.12.2018 12:00:00 -3,0 -15,3 11 6 NNE 20
15.12.2018 11:00:00 -4,0 -14,7 13 7 NNE 20
15.12.2018 10:00:00 -6,0 -13,6 11 6 NNE 20
15.12.2018 09:00:00 -9,4 -13,8 16 9 NNE 20
15.12.2018 08:00:00 -10,0 -13,1 13 7 NNE 20
15.12.2018 07:00:00 -10,0 -12,8 11 6 NNE 12
15.12.2018 06:00:00 - - - - - -
15.12.2018 05:00:00 - - - - - -
15.12.2018 04:00:00 -9,4 -13,0 11 6 NNE 10
15.12.2018 03:00:00 -9,0 -13,0 11 6 NE 10
15.12.2018 02:00:00 -9,0 -13,1 8 4 NE 10
15.12.2018 01:00:00 -9,0 -13,0 9 5 NNE 10
15.12.2018 00:00:00 -8,6 -12,7 9 5 NNE 10
14.12.2018 23:00:00 -8,4 -12,5 15 8 NNE 10
14.12.2018 22:00:00 -8,6 -12,4 13 7 NNE 10
14.12.2018 21:00:00 -7,8 -12,1 15 8 NNE 12
14.12.2018 20:00:00 -7,8 -13,0 13 7 NNE 12
14.12.2018 19:00:00 -7,0 -12,7 13 7 N 15
14.12.2018 18:00:00 -6,6 -12,5 9 5 NNE 15
14.12.2018 17:00:00 -6,0 -12,3 9 5 N 14
14.12.2018 16:00:00 -5,0 -12,2 8 4 N 30
14.12.2018 15:00:00 -3,8 -12,0 11 6 N 30
14.12.2018 14:00:00 -3,0 -13,0 11 6 N 30
14.12.2018 13:00:00 -3,4 -13,4 13 7 NNW 30
14.12.2018 12:00:00 -4,0 -13,1 9 5 NNE 30
14.12.2018 11:00:00 -4,6 -13,4 9 5 N 30
14.12.2018 10:00:00 -8,0 -12,2 9 5 NNE 30
14.12.2018 09:00:00 -11,8 -14,3 5 3 NNE 20
14.12.2018 08:00:00 -11,8 -14,4 8 4 NNE 16
14.12.2018 07:00:00 -12,0 -14,4 5 3 NNE 14
14.12.2018 06:00:00 -12,0 -14,7 5 3 N 12
14.12.2018 05:00:00 -11,8 -14,7 5 3 N 12
14.12.2018 04:00:00 -11,8 -14,7 8 4 NNE 12
14.12.2018 03:00:00 -11,6 -14,7 8 4 NNE 12
14.12.2018 02:00:00 -11,4 -14,8 8 4 NNE 12
14.12.2018 01:00:00 -11,4 -14,6 5 3 N 12
14.12.2018 00:00:00 -11,2 -14,4 5 3 NNE 12
13.12.2018 23:00:00 -11,0 -14,4 5 3 NNE 12
13.12.2018 22:00:00 -10,8 -14,2 0 0 N 12
13.12.2018 21:00:00 -10,8 -14,4 0 0 N 12
13.12.2018 20:00:00 -10,4 -14,3 5 3 NNE 12
13.12.2018 19:00:00 -10,0 -13,9 8 4 NNE 12
13.12.2018 18:00:00 -9,8 -14,8 0 0 N 12
13.12.2018 17:00:00 -8,6 -14,6 0 0 N 20
13.12.2018 16:00:00 -6,4 -14,2 0 0 N 20
13.12.2018 15:00:00 -4,6 -15,8 5 3 SW 20
13.12.2018 14:00:00 -4,4 -18,3 9 5 S 20
13.12.2018 13:00:00 -2,4 -18,9 11 6 S 20
13.12.2018 12:00:00 -2,8 -16,8 0 0 N 20
13.12.2018 11:00:00 -4,8 -16,6 0 0 N 20
13.12.2018 10:00:00 -10,8 -13,9 0 0 N 20
13.12.2018 09:00:00 -13,2 -15,5 0 0 N 20
13.12.2018 08:00:00 -13,0 -15,7 0 0 N 15
13.12.2018 07:00:00 -12,8 -15,5 0 0 N 15
13.12.2018 06:00:00 -12,4 -15,1 4 2 ENE 10
13.12.2018 05:00:00 -11,6 -14,0 4 2 NE 10
13.12.2018 04:00:00 -11,6 -14,0 4 2 NNE 10
13.12.2018 03:00:00 -11,4 -14,1 11 6 NNE 10
13.12.2018 02:00:00 -11,4 -14,1 9 5 NNE 10
13.12.2018 01:00:00 -11,4 -14,6 9 5 NNE 10
13.12.2018 00:00:00 -11,2 -14,4 9 5 NNE 12
12.12.2018 23:00:00 -10,8 -13,9 11 6 NNE 12
12.12.2018 22:00:00 -10,2 -13,3 9 5 NNE 10
12.12.2018 21:00:00 -9,8 -13,1 11 6 N 12
12.12.2018 20:00:00 -9,0 -12,8 8 4 NNE 12
12.12.2018 19:00:00 -8,4 -12,4 11 6 N 10
12.12.2018 18:00:00 -8,2 -12,2 9 5 N 15
12.12.2018 17:00:00 -7,4 -12,5 9 5 N 15
12.12.2018 16:00:00 -5,6 -12,1 9 5 N 18
12.12.2018 15:00:00 -3,4 -15,4 13 7 N 20
12.12.2018 14:00:00 -3,2 -14,9 16 9 NNE 20
12.12.2018 13:00:00 -3,8 -14,6 15 8 N 20
12.12.2018 12:00:00 -4,0 -14,2 15 8 N 20
12.12.2018 11:00:00 -5,2 -14,0 15 8 NNE 20
12.12.2018 10:00:00 -8,6 -14,4 16 9 NNE 15
12.12.2018 09:00:00 -10,4 -14,3 9 5 NNE 20
12.12.2018 08:00:00 -10,4 -14,1 9 5 NNE 20
12.12.2018 07:00:00 -10,2 -14,3 9 5 NNE 10
12.12.2018 06:00:00 -10,0 -13,1 9 5 NNE 10
12.12.2018 05:00:00 -10,0 -13,1 9 5 NNE 10
12.12.2018 04:00:00 -9,4 -12,4 5 3 N 10
12.12.2018 03:00:00 -9,4 -12,4 8 4 N 10
12.12.2018 02:00:00 -9,0 -10,5 8 4 NNE 10
12.12.2018 01:00:00 -9,0 -10,5 5 3 NNE 10
12.12.2018 00:00:00 -8,6 -11,6 8 4 N 15
11.12.2018 23:00:00 -7,6 -10,9 8 4 N 15
11.12.2018 22:00:00 -7,2 -10,7 5 3 NNE 10
11.12.2018 21:00:00 -6,8 -10,3 8 4 N 10
11.12.2018 20:00:00 -6,6 -10,1 5 3 N 10

tt = Température de l'air
td = dewpoint
ff = Vitesse du vent
dd = Direction du vent
vv = visibility

stations d'obs. à proximité